createdAt,value
2019-02-20T10:14:36.685Z,100360.62
2019-02-20T10:17:06.694Z,100373.19
2019-02-20T10:19:36.996Z,100386.64
2019-02-20T10:22:07.408Z,100362.37
2019-02-20T10:24:39.161Z,100342.70
2019-02-20T10:27:09.134Z,100339.64
2019-02-20T10:29:40.554Z,100346.30
2019-02-20T10:32:10.924Z,100348.02
2019-02-20T10:34:41.285Z,100340.52
2019-02-20T10:37:11.742Z,100350.09
2019-02-20T10:39:41.866Z,100345.55
2019-02-20T10:42:12.165Z,100342.42
2019-02-20T10:44:42.557Z,100352.55
2019-02-20T10:47:14.164Z,100343.16
2019-02-20T10:49:44.544Z,100356.34
2019-02-20T10:52:14.602Z,100342.03
2019-02-20T10:54:45.638Z,100359.03
2019-02-20T10:57:16.136Z,100352.06
2019-02-20T10:59:46.214Z,100346.58
2019-02-20T11:02:16.769Z,100353.42
2019-02-20T11:04:47.373Z,100349.52
2019-02-20T11:07:17.468Z,100354.44
2019-02-20T11:09:47.520Z,100355.55
2019-02-20T11:12:17.573Z,100362.91
2019-02-20T11:14:48.994Z,100363.16
2019-02-20T11:17:19.785Z,100363.84
2019-02-20T11:19:49.887Z,100363.67
2019-02-20T11:22:20.632Z,100352.67
2019-02-20T11:24:50.800Z,100362.54
2019-02-20T11:27:21.109Z,100357.12
2019-02-20T11:29:51.446Z,100347.90
2019-02-20T11:32:21.875Z,100348.75
2019-02-20T11:34:51.959Z,100350.39
2019-02-20T11:37:23.134Z,100358.95
2019-02-20T11:39:54.041Z,100354.22
2019-02-20T11:42:24.259Z,100363.19
2019-02-20T11:44:54.596Z,100370.36
2019-02-20T11:47:24.685Z,100371.02
2019-02-20T11:49:54.711Z,100370.45
2019-02-20T11:52:24.712Z,100370.22
2019-02-20T11:54:55.039Z,100363.03
2019-02-20T11:57:25.071Z,100365.48
2019-02-20T11:59:55.398Z,100364.41
2019-02-20T12:02:25.556Z,100377.50
2019-02-20T12:04:55.633Z,100370.98
2019-02-20T12:07:25.921Z,100367.88
2019-02-20T12:09:56.289Z,100384.88
2019-02-20T12:12:26.658Z,100384.22
2019-02-20T12:14:56.997Z,100379.00
2019-02-20T12:17:27.324Z,100382.35
2019-02-20T12:19:57.425Z,100375.83
2019-02-20T12:22:27.447Z,100379.73
2019-02-20T12:24:59.255Z,100375.63
2019-02-20T12:27:29.411Z,100379.27
2019-02-20T12:29:59.502Z,100373.64
2019-02-20T12:32:30.951Z,100376.00
2019-02-20T12:35:01.350Z,100373.22
2019-02-20T12:37:31.465Z,100376.92
2019-02-20T12:40:01.495Z,100374.77
2019-02-20T12:42:32.658Z,100388.66
2019-02-20T12:45:02.685Z,100394.13
2019-02-20T12:47:33.983Z,100389.29
2019-02-20T12:50:06.043Z,100384.05
2019-02-20T12:52:36.151Z,100390.05
2019-02-20T12:55:07.318Z,100388.33
2019-02-20T12:57:37.405Z,100391.04
2019-02-20T13:00:12.920Z,100392.03
2019-02-20T13:02:43.422Z,100391.00
2019-02-20T13:05:13.705Z,100387.26
2019-02-20T13:07:43.922Z,100397.02
2019-02-20T13:10:13.944Z,100403.63
2019-02-20T13:12:44.298Z,100405.34
2019-02-20T13:15:14.393Z,100399.16
2019-02-20T13:17:44.693Z,100411.89
2019-02-20T13:20:15.403Z,100400.73
2019-02-20T13:22:45.742Z,100408.28
2019-02-20T13:25:15.908Z,100410.55
2019-02-20T13:27:45.908Z,100410.67
2019-02-20T13:30:16.538Z,100417.41
2019-02-20T13:32:46.976Z,100416.75
2019-02-20T13:35:18.658Z,100401.36
2019-02-20T13:37:49.770Z,100401.67
2019-02-20T13:40:20.121Z,100407.13
2019-02-20T13:42:50.285Z,100398.75
2019-02-20T13:45:20.584Z,100418.66
2019-02-20T13:47:50.667Z,100410.97
2019-02-20T13:50:20.930Z,100418.17
2019-02-20T13:52:52.592Z,100403.17
2019-02-20T13:55:23.841Z,100412.41
2019-02-20T13:57:53.827Z,100430.52
2019-02-20T14:00:24.121Z,100428.02
2019-02-20T14:02:54.449Z,100425.33
2019-02-20T14:05:25.033Z,100425.07
2019-02-20T14:07:56.687Z,100421.30
2019-02-20T14:10:26.694Z,100408.35
2019-02-20T14:12:56.972Z,100429.20
2019-02-20T14:15:27.288Z,100420.63
2019-02-20T14:17:57.385Z,100424.47
2019-02-20T14:20:27.378Z,100425.23
2019-02-20T14:22:57.803Z,100418.64
2019-02-20T14:25:28.149Z,100424.53
2019-02-20T14:27:58.533Z,100425.99
2019-02-20T14:30:28.936Z,100430.73
2019-02-20T14:33:00.825Z,100427.48
2019-02-20T14:35:31.173Z,100422.83
2019-02-20T14:38:01.245Z,100419.02
2019-02-20T14:40:31.595Z,100421.70
2019-02-20T14:43:01.710Z,100419.13
2019-02-20T14:45:31.709Z,100432.44
2019-02-20T14:48:02.464Z,100437.23
2019-02-20T14:50:32.544Z,100430.37
2019-02-20T14:53:02.714Z,100427.01
2019-02-20T14:55:32.967Z,100434.00
2019-02-20T14:58:03.937Z,100432.89
2019-02-20T15:00:34.220Z,100442.55
2019-02-20T15:03:05.217Z,100437.84
2019-02-20T15:05:35.533Z,100442.35
2019-02-20T15:08:05.718Z,100431.61
2019-02-20T15:10:35.706Z,100440.52
2019-02-20T15:13:05.777Z,100444.10
2019-02-20T15:15:35.817Z,100440.43
2019-02-20T15:18:06.073Z,100442.62
2019-02-20T15:20:36.415Z,100448.72
2019-02-20T15:23:06.905Z,100455.64
2019-02-20T15:25:37.239Z,100456.38
2019-02-20T15:28:07.596Z,100455.28
2019-02-20T15:30:38.379Z,100463.03
2019-02-20T15:33:08.376Z,100470.28
2019-02-20T15:35:38.662Z,100475.56
2019-02-20T15:38:09.367Z,100481.94
2019-02-20T15:40:39.698Z,100479.94
2019-02-20T15:43:10.712Z,100497.34
2019-02-20T15:45:41.522Z,100494.35
2019-02-20T15:48:11.612Z,100496.30
2019-02-20T15:50:41.872Z,100492.69
2019-02-20T15:53:12.136Z,100501.40
2019-02-20T15:55:42.395Z,100508.03
2019-02-20T15:58:12.494Z,100507.30
2019-02-20T16:00:44.345Z,100510.83
2019-02-20T16:03:14.264Z,100502.70
2019-02-20T16:05:44.273Z,100509.27
2019-02-20T16:08:14.525Z,100519.61
2019-02-20T16:10:45.558Z,100524.45
2019-02-20T16:13:15.902Z,100527.03
2019-02-20T16:15:45.997Z,100526.56
2019-02-20T16:18:16.280Z,100534.27
2019-02-20T16:20:48.110Z,100530.38
2019-02-20T16:23:18.447Z,100548.26
2019-02-20T16:25:48.535Z,100551.28
2019-02-20T16:28:18.910Z,100549.64
2019-02-20T16:30:48.905Z,100553.50
2019-02-20T16:33:18.907Z,100559.20
2019-02-20T16:35:50.178Z,100560.42
2019-02-20T16:38:22.003Z,100559.20
2019-02-20T16:40:52.969Z,100546.41
2019-02-20T16:43:23.297Z,100565.25
2019-02-20T16:45:53.300Z,100572.17
2019-02-20T16:48:23.340Z,100571.06
2019-02-20T16:50:53.445Z,100570.25
2019-02-20T16:53:23.469Z,100584.41
2019-02-20T16:55:55.636Z,100577.08
2019-02-20T16:58:25.783Z,100573.70
2019-02-20T17:00:56.322Z,100584.98
2019-02-20T17:03:26.619Z,100571.19
2019-02-20T17:05:56.957Z,100586.38
2019-02-20T17:08:27.029Z,100599.78
2019-02-20T17:10:57.626Z,100577.72
2019-02-20T17:13:27.616Z,100590.19
2019-02-20T17:15:57.620Z,100597.58
2019-02-20T17:18:27.912Z,100598.98
2019-02-20T17:20:57.986Z,100596.45
2019-02-20T17:23:27.992Z,100599.09
2019-02-20T17:25:58.653Z,100602.56
2019-02-20T17:28:28.742Z,100606.00
2019-02-20T17:31:00.421Z,100610.27
2019-02-20T17:33:30.515Z,100603.88
2019-02-20T17:36:00.531Z,100605.63
2019-02-20T17:38:31.264Z,100609.53
2019-02-20T17:41:01.606Z,100599.55
2019-02-20T17:43:31.927Z,100606.14
2019-02-20T17:46:02.324Z,100623.80
2019-02-20T17:48:33.512Z,100619.56
2019-02-20T17:51:03.552Z,100623.52
2019-02-20T17:53:34.103Z,100620.14
2019-02-20T17:56:04.179Z,100625.34
2019-02-20T17:58:34.297Z,100639.14
2019-02-20T18:01:06.005Z,100632.78
2019-02-20T18:03:36.360Z,100637.48
2019-02-20T18:06:07.756Z,100651.42
2019-02-20T18:08:38.099Z,100647.94
2019-02-20T18:11:10.654Z,100660.09
2019-02-20T18:13:41.271Z,100658.80
2019-02-20T18:16:11.268Z,100668.73
2019-02-20T18:18:41.284Z,100676.12
2019-02-20T18:21:11.576Z,100673.16
2019-02-20T18:23:41.647Z,100677.50
2019-02-20T18:26:11.988Z,100686.99
2019-02-20T18:28:42.077Z,100695.20
2019-02-20T18:31:12.584Z,100687.04
2019-02-20T18:33:42.765Z,100692.27
2019-02-20T18:36:12.814Z,100690.16
2019-02-20T18:38:42.835Z,100700.08
2019-02-20T18:41:14.501Z,100701.80
2019-02-20T18:43:44.761Z,100707.02
2019-02-20T18:46:15.676Z,100706.18
2019-02-20T18:48:45.938Z,100713.11
2019-02-20T18:51:16.028Z,100714.94
2019-02-20T18:53:46.066Z,100731.30
2019-02-20T18:56:16.122Z,100728.64
2019-02-20T18:58:48.889Z,100729.61
2019-02-20T19:01:18.919Z,100737.84
2019-02-20T19:03:49.154Z,100737.45
2019-02-20T19:06:19.333Z,100740.00
2019-02-20T19:08:52.219Z,100743.52
2019-02-20T19:11:36.340Z,100745.66
2019-02-20T19:14:12.471Z,100735.72
2019-02-20T19:16:50.951Z,100746.98
2019-02-20T19:19:40.948Z,100744.83
2019-02-20T19:22:44.644Z,100745.74
2019-02-20T19:25:40.046Z,100757.02
2019-02-20T19:28:24.060Z,100758.31
2019-02-20T19:31:17.805Z,100760.89
2019-02-20T19:34:21.221Z,100766.12
2019-02-20T19:37:24.620Z,100765.28
2019-02-20T19:40:06.918Z,100768.73
2019-02-20T19:43:02.350Z,100767.02
2019-02-20T19:45:40.460Z,100770.90
2019-02-20T19:48:36.449Z,100769.13
2019-02-20T19:51:39.542Z,100768.30
2019-02-20T19:54:29.530Z,100777.43
2019-02-20T19:57:15.280Z,100772.31
2019-02-20T20:00:25.254Z,100784.05
2019-02-20T20:03:01.659Z,100782.75
2019-02-20T20:05:53.163Z,100790.09
2019-02-20T20:08:29.239Z,100785.34
2019-02-20T20:11:07.299Z,100790.09
2019-02-20T20:14:00.310Z,100794.02
2019-02-20T20:16:57.380Z,100787.54
2019-02-20T20:19:45.305Z,100798.33
2019-02-20T20:22:38.201Z,100799.62
2019-02-20T20:25:17.460Z,100800.92
2019-02-20T20:27:55.507Z,100804.39
2019-02-20T20:30:55.470Z,100799.63
2019-02-20T20:33:46.108Z,100803.51
2019-02-20T20:36:19.781Z,100808.66
2019-02-20T20:39:07.855Z,100816.47
2019-02-20T20:42:12.452Z,100807.39
2019-02-20T20:44:56.983Z,100810.41
2019-02-20T20:47:37.119Z,100812.14
2019-02-20T20:50:23.620Z,100818.62
2019-02-20T20:52:56.919Z,100819.05
2019-02-20T20:55:46.785Z,100812.98
2019-02-20T20:58:26.946Z,100814.73
2019-02-20T21:01:20.589Z,100819.05
2019-02-20T21:04:32.261Z,100820.76
2019-02-20T21:07:27.091Z,100823.78
2019-02-20T21:10:00.961Z,100822.48
2019-02-20T21:13:12.126Z,100824.20
2019-02-20T21:16:04.918Z,100829.34
2019-02-20T21:19:22.374Z,100818.09
2019-02-20T21:22:13.567Z,100831.98
2019-02-20T21:25:07.885Z,100830.28
2019-02-20T21:27:51.981Z,100823.35
2019-02-20T21:30:27.207Z,100831.15
2019-02-20T21:33:06.363Z,100827.27
2019-02-20T21:35:49.824Z,100823.36
2019-02-20T21:38:53.542Z,100822.93
2019-02-20T21:41:40.640Z,100826.38
2019-02-20T21:44:27.391Z,100819.45
2019-02-20T21:47:26.799Z,100824.16
2019-02-20T21:50:23.112Z,100828.95
2019-02-20T21:53:00.845Z,100832.86
2019-02-20T21:56:01.646Z,100829.85
2019-02-20T21:58:56.073Z,100834.59
2019-02-20T22:01:49.243Z,100838.47
2019-02-20T22:04:28.164Z,100840.20
2019-02-20T22:07:15.170Z,100849.29
2019-02-20T22:09:58.389Z,100852.31
2019-02-20T22:12:31.031Z,100856.20
2019-02-20T22:15:10.070Z,100858.75
2019-02-20T22:18:08.872Z,100845.77
2019-02-20T22:21:21.251Z,100844.92
2019-02-20T22:24:18.893Z,100850.09
2019-02-20T22:27:11.848Z,100844.92
2019-02-20T22:30:20.545Z,100845.41
2019-02-20T22:33:08.797Z,100848.44
2019-02-20T22:36:24.595Z,100851.06
2019-02-20T22:39:12.912Z,100852.77
2019-02-20T22:42:15.116Z,100856.67
2019-02-20T22:45:20.198Z,100858.41
2019-02-20T22:47:57.733Z,100864.44
2019-02-20T22:50:48.861Z,100864.86
2019-02-20T22:53:58.333Z,100864.02
2019-02-20T22:56:56.222Z,100859.70
2019-02-20T23:00:02.689Z,100860.57
2019-02-20T23:02:46.577Z,100857.12
2019-02-20T23:05:42.563Z,100862.30
2019-02-20T23:08:18.584Z,100860.57
2019-02-20T23:11:11.458Z,100860.57
2019-02-20T23:14:10.298Z,100866.63
2019-02-20T23:16:40.552Z,100864.90
2019-02-20T23:19:10.839Z,100874.84
2019-02-20T23:21:40.914Z,100871.81
2019-02-20T23:24:11.182Z,100874.84
2019-02-20T23:26:41.541Z,100876.15
2019-02-20T23:29:11.846Z,100872.27
2019-02-20T23:31:41.934Z,100869.23
2019-02-20T23:34:12.499Z,100867.09
2019-02-20T23:36:42.821Z,100859.80
2019-02-20T23:39:13.274Z,100865.86
2019-02-20T23:41:44.122Z,100872.78
2019-02-20T23:44:14.161Z,100862.41
2019-02-20T23:46:44.185Z,100863.28
2019-02-20T23:49:14.205Z,100870.22
2019-02-20T23:51:44.200Z,100872.36
2019-02-20T23:54:14.492Z,100877.08
2019-02-20T23:56:44.606Z,100871.91
2019-02-20T23:59:14.860Z,100884.83
